sensor_id;sensor_type;location;lat;lon;timestamp;P1;durP1;ratioP1;P2;durP2;ratioP2
19816;SDS011;68323;49.394;8.434;2023-09-18T00:01:52;5.35;;;3.10;;
19816;SDS011;68323;49.394;8.434;2023-09-18T00:04:17;8.57;;;3.60;;
19816;SDS011;68323;49.394;8.434;2023-09-18T00:06:43;6.15;;;2.92;;
19816;SDS011;68323;49.394;8.434;2023-09-18T00:09:08;4.15;;;3.13;;
19816;SDS011;68323;49.394;8.434;2023-09-18T00:11:36;4.82;;;3.08;;
19816;SDS011;68323;49.394;8.434;2023-09-18T00:14:03;4.15;;;3.17;;
19816;SDS011;68323;49.394;8.434;2023-09-18T00:16:29;4.40;;;2.88;;
19816;SDS011;68323;49.394;8.434;2023-09-18T00:18:55;7.40;;;3.08;;
19816;SDS011;68323;49.394;8.434;2023-09-18T00:21:20;4.40;;;3.08;;
19816;SDS011;68323;49.394;8.434;2023-09-18T00:23:46;4.38;;;2.88;;
19816;SDS011;68323;49.394;8.434;2023-09-18T00:26:12;5.70;;;2.97;;
19816;SDS011;68323;49.394;8.434;2023-09-18T00:28:37;3.05;;;2.75;;
19816;SDS011;68323;49.394;8.434;2023-09-18T00:31:03;5.85;;;3.30;;
19816;SDS011;68323;49.394;8.434;2023-09-18T00:33:28;3.45;;;2.65;;
19816;SDS011;68323;49.394;8.434;2023-09-18T00:35:54;4.22;;;3.20;;
19816;SDS011;68323;49.394;8.434;2023-09-18T00:38:20;4.63;;;2.80;;
19816;SDS011;68323;49.394;8.434;2023-09-18T00:40:45;6.50;;;3.30;;
19816;SDS011;68323;49.394;8.434;2023-09-18T00:43:11;3.95;;;2.83;;
19816;SDS011;68323;49.394;8.434;2023-09-18T00:45:41;6.57;;;3.00;;
19816;SDS011;68323;49.394;8.434;2023-09-18T00:48:08;6.40;;;3.28;;
19816;SDS011;68323;49.394;8.434;2023-09-18T00:50:34;3.72;;;2.78;;
19816;SDS011;68323;49.394;8.434;2023-09-18T00:53:00;3.90;;;2.83;;
19816;SDS011;68323;49.394;8.434;2023-09-18T00:55:27;4.65;;;3.17;;
19816;SDS011;68323;49.394;8.434;2023-09-18T00:57:55;3.35;;;2.70;;
19816;SDS011;68323;49.394;8.434;2023-09-18T01:00:21;4.18;;;2.92;;
19816;SDS011;68323;49.394;8.434;2023-09-18T01:02:47;3.40;;;2.63;;
19816;SDS011;68323;49.394;8.434;2023-09-18T01:05:13;3.25;;;2.95;;
19816;SDS011;68323;49.394;8.434;2023-09-18T01:07:41;4.43;;;3.08;;
19816;SDS011;68323;49.394;8.434;2023-09-18T01:10:07;5.35;;;2.92;;
19816;SDS011;68323;49.394;8.434;2023-09-18T01:12:42;4.18;;;2.88;;
19816;SDS011;68323;49.394;8.434;2023-09-18T01:15:27;4.15;;;3.10;;
19816;SDS011;68323;49.394;8.434;2023-09-18T01:17:57;4.50;;;3.10;;
19816;SDS011;68323;49.394;8.434;2023-09-18T01:20:23;3.28;;;2.83;;
19816;SDS011;68323;49.394;8.434;2023-09-18T01:22:48;4.65;;;3.20;;
19816;SDS011;68323;49.394;8.434;2023-09-18T01:25:14;4.85;;;3.00;;
19816;SDS011;68323;49.394;8.434;2023-09-18T01:27:40;4.05;;;2.72;;
19816;SDS011;68323;49.394;8.434;2023-09-18T01:30:07;6.82;;;3.00;;
19816;SDS011;68323;49.394;8.434;2023-09-18T01:32:32;3.45;;;3.10;;
19816;SDS011;68323;49.394;8.434;2023-09-18T01:35:02;4.78;;;3.20;;
19816;SDS011;68323;49.394;8.434;2023-09-18T01:37:30;4.68;;;3.40;;
19816;SDS011;68323;49.394;8.434;2023-09-18T01:39:57;5.93;;;3.33;;
19816;SDS011;68323;49.394;8.434;2023-09-18T01:42:24;4.22;;;3.35;;
19816;SDS011;68323;49.394;8.434;2023-09-18T01:44:54;4.65;;;3.60;;
19816;SDS011;68323;49.394;8.434;2023-09-18T01:47:20;4.75;;;3.60;;
19816;SDS011;68323;49.394;8.434;2023-09-18T01:49:51;5.55;;;3.60;;
19816;SDS011;68323;49.394;8.434;2023-09-18T01:52:17;6.75;;;3.85;;
19816;SDS011;68323;49.394;8.434;2023-09-18T01:54:43;5.18;;;3.80;;
19816;SDS011;68323;49.394;8.434;2023-09-18T01:57:08;8.50;;;3.88;;
19816;SDS011;68323;49.394;8.434;2023-09-18T01:59:34;11.77;;;4.50;;
19816;SDS011;68323;49.394;8.434;2023-09-18T02:02:00;7.70;;;4.35;;
19816;SDS011;68323;49.394;8.434;2023-09-18T02:04:28;6.20;;;4.38;;
19816;SDS011;68323;49.394;8.434;2023-09-18T02:06:54;8.35;;;4.40;;
19816;SDS011;68323;49.394;8.434;2023-09-18T02:09:20;8.40;;;4.25;;
19816;SDS011;68323;49.394;8.434;2023-09-18T02:11:46;9.80;;;4.30;;
19816;SDS011;68323;49.394;8.434;2023-09-18T02:14:13;7.53;;;4.30;;
19816;SDS011;68323;49.394;8.434;2023-09-18T02:16:39;11.40;;;4.60;;
19816;SDS011;68323;49.394;8.434;2023-09-18T02:19:08;6.15;;;3.85;;
19816;SDS011;68323;49.394;8.434;2023-09-18T02:21:34;7.00;;;4.30;;
19816;SDS011;68323;49.394;8.434;2023-09-18T02:24:01;5.32;;;4.07;;
19816;SDS011;68323;49.394;8.434;2023-09-18T02:26:27;7.72;;;4.70;;
19816;SDS011;68323;49.394;8.434;2023-09-18T02:28:53;7.13;;;4.20;;
19816;SDS011;68323;49.394;8.434;2023-09-18T02:31:19;9.13;;;4.40;;
19816;SDS011;68323;49.394;8.434;2023-09-18T02:33:45;5.00;;;4.23;;
19816;SDS011;68323;49.394;8.434;2023-09-18T02:36:11;7.20;;;3.93;;
19816;SDS011;68323;49.394;8.434;2023-09-18T02:38:37;5.23;;;4.10;;
19816;SDS011;68323;49.394;8.434;2023-09-18T02:41:03;6.93;;;4.23;;
19816;SDS011;68323;49.394;8.434;2023-09-18T02:43:28;7.00;;;4.27;;
19816;SDS011;68323;49.394;8.434;2023-09-18T02:45:54;8.10;;;4.37;;
19816;SDS011;68323;49.394;8.434;2023-09-18T02:48:19;6.50;;;4.30;;
19816;SDS011;68323;49.394;8.434;2023-09-18T02:50:45;7.80;;;4.22;;
19816;SDS011;68323;49.394;8.434;2023-09-18T02:53:21;10.60;;;4.35;;
19816;SDS011;68323;49.394;8.434;2023-09-18T02:55:49;6.63;;;4.13;;
19816;SDS011;68323;49.394;8.434;2023-09-18T02:58:16;7.67;;;4.03;;
19816;SDS011;68323;49.394;8.434;2023-09-18T03:00:44;6.60;;;3.80;;
19816;SDS011;68323;49.394;8.434;2023-09-18T03:03:11;6.20;;;4.13;;
19816;SDS011;68323;49.394;8.434;2023-09-18T03:05:36;6.93;;;4.37;;
19816;SDS011;68323;49.394;8.434;2023-09-18T03:08:03;6.97;;;4.00;;
19816;SDS011;68323;49.394;8.434;2023-09-18T03:10:35;5.27;;;3.90;;
19816;SDS011;68323;49.394;8.434;2023-09-18T03:13:01;6.33;;;4.30;;
19816;SDS011;68323;49.394;8.434;2023-09-18T03:15:28;8.40;;;4.17;;
19816;SDS011;68323;49.394;8.434;2023-09-18T03:17:54;5.80;;;4.10;;
19816;SDS011;68323;49.394;8.434;2023-09-18T03:20:23;7.23;;;4.47;;
19816;SDS011;68323;49.394;8.434;2023-09-18T03:23:00;9.40;;;4.40;;
19816;SDS011;68323;49.394;8.434;2023-09-18T03:25:26;7.33;;;4.23;;
19816;SDS011;68323;49.394;8.434;2023-09-18T03:27:53;7.73;;;4.60;;
19816;SDS011;68323;49.394;8.434;2023-09-18T03:30:20;6.37;;;4.30;;
19816;SDS011;68323;49.394;8.434;2023-09-18T03:32:48;10.73;;;4.40;;
19816;SDS011;68323;49.394;8.434;2023-09-18T03:35:14;8.37;;;4.13;;
19816;SDS011;68323;49.394;8.434;2023-09-18T03:37:50;8.23;;;4.38;;
19816;SDS011;68323;49.394;8.434;2023-09-18T03:40:18;6.93;;;4.37;;
19816;SDS011;68323;49.394;8.434;2023-09-18T03:42:44;8.07;;;4.23;;
19816;SDS011;68323;49.394;8.434;2023-09-18T03:45:10;9.57;;;4.40;;
19816;SDS011;68323;49.394;8.434;2023-09-18T03:47:37;9.07;;;4.30;;
19816;SDS011;68323;49.394;8.434;2023-09-18T03:50:07;9.83;;;4.10;;
19816;SDS011;68323;49.394;8.434;2023-09-18T03:52:33;13.40;;;4.47;;
19816;SDS011;68323;49.394;8.434;2023-09-18T03:54:59;16.63;;;4.85;;
19816;SDS011;68323;49.394;8.434;2023-09-18T03:57:25;16.67;;;4.23;;
19816;SDS011;68323;49.394;8.434;2023-09-18T03:59:50;18.15;;;4.13;;
19816;SDS011;68323;49.394;8.434;2023-09-18T04:02:16;13.57;;;4.45;;
19816;SDS011;68323;49.394;8.434;2023-09-18T04:04:41;14.38;;;4.57;;
19816;SDS011;68323;49.394;8.434;2023-09-18T04:07:07;13.93;;;4.60;;
19816;SDS011;68323;49.394;8.434;2023-09-18T04:09:33;13.75;;;4.05;;
19816;SDS011;68323;49.394;8.434;2023-09-18T04:12:02;11.10;;;4.67;;
19816;SDS011;68323;49.394;8.434;2023-09-18T04:14:31;15.50;;;4.30;;
19816;SDS011;68323;49.394;8.434;2023-09-18T04:16:56;16.37;;;4.00;;
19816;SDS011;68323;49.394;8.434;2023-09-18T04:19:22;13.90;;;3.83;;
19816;SDS011;68323;49.394;8.434;2023-09-18T04:21:47;11.23;;;3.60;;
19816;SDS011;68323;49.394;8.434;2023-09-18T04:24:13;14.33;;;4.03;;
19816;SDS011;68323;49.394;8.434;2023-09-18T04:26:39;15.27;;;3.77;;
19816;SDS011;68323;49.394;8.434;2023-09-18T04:29:04;17.03;;;4.10;;
19816;SDS011;68323;49.394;8.434;2023-09-18T04:31:30;13.53;;;3.50;;
19816;SDS011;68323;49.394;8.434;2023-09-18T04:33:56;10.73;;;3.20;;
19816;SDS011;68323;49.394;8.434;2023-09-18T04:36:22;14.83;;;3.43;;
19816;SDS011;68323;49.394;8.434;2023-09-18T04:38:48;9.73;;;3.13;;
19816;SDS011;68323;49.394;8.434;2023-09-18T04:41:14;11.13;;;3.13;;
19816;SDS011;68323;49.394;8.434;2023-09-18T04:43:40;16.53;;;3.70;;
19816;SDS011;68323;49.394;8.434;2023-09-18T04:46:06;11.67;;;3.50;;
19816;SDS011;68323;49.394;8.434;2023-09-18T04:48:32;10.93;;;3.30;;
19816;SDS011;68323;49.394;8.434;2023-09-18T04:50:58;12.87;;;3.40;;
19816;SDS011;68323;49.394;8.434;2023-09-18T04:53:24;15.53;;;3.87;;
19816;SDS011;68323;49.394;8.434;2023-09-18T04:55:50;10.77;;;3.40;;
19816;SDS011;68323;49.394;8.434;2023-09-18T04:58:16;10.93;;;3.23;;
19816;SDS011;68323;49.394;8.434;2023-09-18T05:00:42;15.70;;;3.80;;
19816;SDS011;68323;49.394;8.434;2023-09-18T05:03:08;12.27;;;3.50;;
19816;SDS011;68323;49.394;8.434;2023-09-18T05:05:35;17.03;;;3.70;;
19816;SDS011;68323;49.394;8.434;2023-09-18T05:08:01;13.90;;;3.93;;
19816;SDS011;68323;49.394;8.434;2023-09-18T05:10:28;11.43;;;4.07;;
19816;SDS011;68323;49.394;8.434;2023-09-18T05:12:54;11.93;;;4.13;;
19816;SDS011;68323;49.394;8.434;2023-09-18T05:15:23;11.77;;;3.80;;
19816;SDS011;68323;49.394;8.434;2023-09-18T05:17:51;11.80;;;3.80;;
19816;SDS011;68323;49.394;8.434;2023-09-18T05:20:20;14.77;;;4.30;;
19816;SDS011;68323;49.394;8.434;2023-09-18T05:22:49;11.47;;;4.40;;
19816;SDS011;68323;49.394;8.434;2023-09-18T05:25:15;10.50;;;4.30;;
19816;SDS011;68323;49.394;8.434;2023-09-18T05:27:40;11.47;;;4.33;;
19816;SDS011;68323;49.394;8.434;2023-09-18T05:32:39;44.03;;;9.90;;
19816;SDS011;68323;49.394;8.434;2023-09-18T05:35:06;12.33;;;4.27;;
19816;SDS011;68323;49.394;8.434;2023-09-18T05:37:35;11.00;;;4.47;;
19816;SDS011;68323;49.394;8.434;2023-09-18T05:40:01;12.27;;;3.90;;
19816;SDS011;68323;49.394;8.434;2023-09-18T05:42:30;11.07;;;4.70;;
19816;SDS011;68323;49.394;8.434;2023-09-18T05:44:56;11.57;;;4.20;;
19816;SDS011;68323;49.394;8.434;2023-09-18T05:47:21;14.77;;;4.37;;
19816;SDS011;68323;49.394;8.434;2023-09-18T05:49:48;12.00;;;4.30;;
19816;SDS011;68323;49.394;8.434;2023-09-18T05:52:13;9.73;;;3.80;;
19816;SDS011;68323;49.394;8.434;2023-09-18T05:54:39;13.97;;;4.27;;
19816;SDS011;68323;49.394;8.434;2023-09-18T05:57:05;12.13;;;4.20;;
19816;SDS011;68323;49.394;8.434;2023-09-18T05:59:32;12.30;;;4.30;;
19816;SDS011;68323;49.394;8.434;2023-09-18T06:01:57;9.80;;;3.90;;
19816;SDS011;68323;49.394;8.434;2023-09-18T06:04:23;14.70;;;4.33;;
19816;SDS011;68323;49.394;8.434;2023-09-18T06:06:49;10.50;;;4.20;;
19816;SDS011;68323;49.394;8.434;2023-09-18T06:09:14;9.73;;;3.93;;
19816;SDS011;68323;49.394;8.434;2023-09-18T06:11:41;14.20;;;4.33;;
19816;SDS011;68323;49.394;8.434;2023-09-18T06:14:06;16.57;;;4.07;;
19816;SDS011;68323;49.394;8.434;2023-09-18T06:16:32;10.37;;;3.90;;
19816;SDS011;68323;49.394;8.434;2023-09-18T06:18:57;13.43;;;4.40;;
19816;SDS011;68323;49.394;8.434;2023-09-18T06:21:25;21.17;;;4.27;;
19816;SDS011;68323;49.394;8.434;2023-09-18T06:23:50;12.93;;;3.83;;
19816;SDS011;68323;49.394;8.434;2023-09-18T06:26:16;17.03;;;3.70;;
19816;SDS011;68323;49.394;8.434;2023-09-18T06:28:43;12.50;;;3.83;;
19816;SDS011;68323;49.394;8.434;2023-09-18T06:31:09;15.20;;;3.87;;
19816;SDS011;68323;49.394;8.434;2023-09-18T06:33:36;10.67;;;3.80;;
19816;SDS011;68323;49.394;8.434;2023-09-18T06:36:02;14.10;;;3.67;;
19816;SDS011;68323;49.394;8.434;2023-09-18T06:38:31;9.47;;;3.20;;
19816;SDS011;68323;49.394;8.434;2023-09-18T06:40:56;9.03;;;3.20;;
19816;SDS011;68323;49.394;8.434;2023-09-18T06:43:22;11.20;;;3.07;;
19816;SDS011;68323;49.394;8.434;2023-09-18T06:45:48;6.97;;;2.50;;
19816;SDS011;68323;49.394;8.434;2023-09-18T06:48:13;7.87;;;2.87;;
19816;SDS011;68323;49.394;8.434;2023-09-18T06:50:40;4.73;;;2.30;;
19816;SDS011;68323;49.394;8.434;2023-09-18T06:53:06;7.93;;;2.03;;
19816;SDS011;68323;49.394;8.434;2023-09-18T06:55:31;9.00;;;2.37;;
19816;SDS011;68323;49.394;8.434;2023-09-18T06:57:59;9.40;;;2.27;;
19816;SDS011;68323;49.394;8.434;2023-09-18T07:00:25;8.55;;;2.17;;
19816;SDS011;68323;49.394;8.434;2023-09-18T07:02:50;6.97;;;2.30;;
19816;SDS011;68323;49.394;8.434;2023-09-18T07:05:16;5.63;;;2.20;;
19816;SDS011;68323;49.394;8.434;2023-09-18T07:07:41;5.27;;;2.23;;
19816;SDS011;68323;49.394;8.434;2023-09-18T07:10:07;7.73;;;2.00;;
19816;SDS011;68323;49.394;8.434;2023-09-18T07:12:33;5.80;;;2.00;;
19816;SDS011;68323;49.394;8.434;2023-09-18T07:15:02;8.82;;;2.38;;
19816;SDS011;68323;49.394;8.434;2023-09-18T07:17:31;9.13;;;2.00;;
19816;SDS011;68323;49.394;8.434;2023-09-18T07:20:00;5.25;;;1.90;;
19816;SDS011;68323;49.394;8.434;2023-09-18T07:22:38;9.30;;;1.80;;
19816;SDS011;68323;49.394;8.434;2023-09-18T07:25:05;4.43;;;1.83;;
19816;SDS011;68323;49.394;8.434;2023-09-18T07:27:31;5.50;;;1.90;;
19816;SDS011;68323;49.394;8.434;2023-09-18T07:30:00;8.20;;;2.08;;
19816;SDS011;68323;49.394;8.434;2023-09-18T07:32:26;5.87;;;2.10;;
19816;SDS011;68323;49.394;8.434;2023-09-18T07:34:53;7.07;;;1.93;;
19816;SDS011;68323;49.394;8.434;2023-09-18T07:37:18;6.88;;;2.05;;
19816;SDS011;68323;49.394;8.434;2023-09-18T07:39:46;7.20;;;2.20;;
19816;SDS011;68323;49.394;8.434;2023-09-18T07:42:11;9.20;;;2.40;;
19816;SDS011;68323;49.394;8.434;2023-09-18T07:44:37;7.10;;;1.87;;
19816;SDS011;68323;49.394;8.434;2023-09-18T07:47:03;7.40;;;1.73;;
19816;SDS011;68323;49.394;8.434;2023-09-18T07:49:28;8.75;;;2.20;;
19816;SDS011;68323;49.394;8.434;2023-09-18T07:51:54;7.70;;;2.13;;
19816;SDS011;68323;49.394;8.434;2023-09-18T07:54:20;5.65;;;1.80;;
19816;SDS011;68323;49.394;8.434;2023-09-18T07:56:46;10.52;;;2.10;;
19816;SDS011;68323;49.394;8.434;2023-09-18T07:59:12;6.63;;;2.10;;
19816;SDS011;68323;49.394;8.434;2023-09-18T08:01:39;4.53;;;1.88;;
19816;SDS011;68323;49.394;8.434;2023-09-18T08:04:06;7.90;;;1.73;;
19816;SDS011;68323;49.394;8.434;2023-09-18T08:06:32;5.40;;;1.92;;
19816;SDS011;68323;49.394;8.434;2023-09-18T08:08:57;4.95;;;1.65;;
19816;SDS011;68323;49.394;8.434;2023-09-18T08:11:23;6.47;;;1.80;;
19816;SDS011;68323;49.394;8.434;2023-09-18T08:13:49;6.53;;;1.77;;
19816;SDS011;68323;49.394;8.434;2023-09-18T08:16:14;5.63;;;1.75;;
19816;SDS011;68323;49.394;8.434;2023-09-18T08:18:43;5.28;;;1.85;;
19816;SDS011;68323;49.394;8.434;2023-09-18T08:21:08;5.95;;;1.88;;
19816;SDS011;68323;49.394;8.434;2023-09-18T08:23:37;6.82;;;1.92;;
19816;SDS011;68323;49.394;8.434;2023-09-18T08:26:03;4.85;;;1.70;;
19816;SDS011;68323;49.394;8.434;2023-09-18T08:28:29;8.93;;;1.90;;
19816;SDS011;68323;49.394;8.434;2023-09-18T08:30:55;6.45;;;1.92;;
19816;SDS011;68323;49.394;8.434;2023-09-18T08:33:21;4.63;;;1.73;;
19816;SDS011;68323;49.394;8.434;2023-09-18T08:35:46;5.25;;;1.58;;
19816;SDS011;68323;49.394;8.434;2023-09-18T08:38:14;6.00;;;1.50;;
19816;SDS011;68323;49.394;8.434;2023-09-18T08:40:40;5.65;;;1.73;;
19816;SDS011;68323;49.394;8.434;2023-09-18T08:43:07;4.95;;;1.33;;
19816;SDS011;68323;49.394;8.434;2023-09-18T08:45:39;6.97;;;1.30;;
19816;SDS011;68323;49.394;8.434;2023-09-18T08:48:10;3.72;;;1.30;;
19816;SDS011;68323;49.394;8.434;2023-09-18T08:50:36;5.90;;;1.80;;
19816;SDS011;68323;49.394;8.434;2023-09-18T08:53:03;4.38;;;1.70;;
19816;SDS011;68323;49.394;8.434;2023-09-18T08:55:29;3.33;;;1.23;;
19816;SDS011;68323;49.394;8.434;2023-09-18T08:57:55;4.57;;;1.40;;
19816;SDS011;68323;49.394;8.434;2023-09-18T09:00:24;2.97;;;1.45;;
19816;SDS011;68323;49.394;8.434;2023-09-18T09:02:51;4.85;;;1.52;;
19816;SDS011;68323;49.394;8.434;2023-09-18T09:05:19;2.88;;;1.23;;
19816;SDS011;68323;49.394;8.434;2023-09-18T09:07:48;4.70;;;1.10;;
19816;SDS011;68323;49.394;8.434;2023-09-18T09:10:14;4.45;;;1.40;;
19816;SDS011;68323;49.394;8.434;2023-09-18T09:12:51;7.45;;;1.27;;
19816;SDS011;68323;49.394;8.434;2023-09-18T09:15:19;5.38;;;1.35;;
19816;SDS011;68323;49.394;8.434;2023-09-18T09:17:45;4.93;;;1.38;;
19816;SDS011;68323;49.394;8.434;2023-09-18T09:20:12;3.88;;;1.38;;
19816;SDS011;68323;49.394;8.434;2023-09-18T09:22:39;4.05;;;1.40;;
19816;SDS011;68323;49.394;8.434;2023-09-18T09:27:48;2.30;;;1.15;;
19816;SDS011;68323;49.394;8.434;2023-09-18T09:30:20;6.85;;;1.58;;
19816;SDS011;68323;49.394;8.434;2023-09-18T09:32:48;5.15;;;1.50;;
19816;SDS011;68323;49.394;8.434;2023-09-18T09:35:22;5.78;;;1.50;;
19816;SDS011;68323;49.394;8.434;2023-09-18T09:37:49;3.58;;;1.38;;
19816;SDS011;68323;49.394;8.434;2023-09-18T09:40:16;4.68;;;1.23;;
19816;SDS011;68323;49.394;8.434;2023-09-18T09:42:43;3.08;;;1.38;;
19816;SDS011;68323;49.394;8.434;2023-09-18T09:45:15;9.35;;;1.85;;
19816;SDS011;68323;49.394;8.434;2023-09-18T09:47:43;8.02;;;1.50;;
19816;SDS011;68323;49.394;8.434;2023-09-18T09:50:10;5.63;;;1.60;;
19816;SDS011;68323;49.394;8.434;2023-09-18T09:52:48;3.88;;;1.45;;
19816;SDS011;68323;49.394;8.434;2023-09-18T09:55:25;4.40;;;1.40;;
19816;SDS011;68323;49.394;8.434;2023-09-18T09:57:51;4.10;;;1.50;;
19816;SDS011;68323;49.394;8.434;2023-09-18T10:00:22;4.90;;;1.50;;
19816;SDS011;68323;49.394;8.434;2023-09-18T10:03:04;6.10;;;1.88;;
19816;SDS011;68323;49.394;8.434;2023-09-18T10:05:34;5.05;;;1.40;;
19816;SDS011;68323;49.394;8.434;2023-09-18T10:08:03;2.95;;;1.25;;
19816;SDS011;68323;49.394;8.434;2023-09-18T10:10:50;5.00;;;1.48;;
19816;SDS011;68323;49.394;8.434;2023-09-18T10:13:18;4.78;;;1.27;;
19816;SDS011;68323;49.394;8.434;2023-09-18T10:15:49;7.13;;;1.70;;
19816;SDS011;68323;49.394;8.434;2023-09-18T10:18:25;7.85;;;1.73;;
19816;SDS011;68323;49.394;8.434;2023-09-18T10:21:18;6.10;;;1.75;;
19816;SDS011;68323;49.394;8.434;2023-09-18T10:26:58;4.95;;;1.92;;
19816;SDS011;68323;49.394;8.434;2023-09-18T10:29:28;6.95;;;1.73;;
19816;SDS011;68323;49.394;8.434;2023-09-18T10:31:55;4.95;;;1.80;;
19816;SDS011;68323;49.394;8.434;2023-09-18T10:34:21;6.53;;;1.88;;
19816;SDS011;68323;49.394;8.434;2023-09-18T10:36:51;3.65;;;1.70;;
19816;SDS011;68323;49.394;8.434;2023-09-18T10:39:18;5.72;;;1.73;;
19816;SDS011;68323;49.394;8.434;2023-09-18T10:41:51;7.30;;;1.90;;
19816;SDS011;68323;49.394;8.434;2023-09-18T10:44:19;5.13;;;1.90;;
19816;SDS011;68323;49.394;8.434;2023-09-18T10:46:48;4.57;;;1.63;;
19816;SDS011;68323;49.394;8.434;2023-09-18T10:49:15;7.30;;;1.60;;
19816;SDS011;68323;49.394;8.434;2023-09-18T10:51:41;6.15;;;1.67;;
19816;SDS011;68323;49.394;8.434;2023-09-18T10:54:09;6.95;;;2.08;;
19816;SDS011;68323;49.394;8.434;2023-09-18T10:56:35;6.28;;;1.75;;
19816;SDS011;68323;49.394;8.434;2023-09-18T10:59:02;7.22;;;1.83;;
19816;SDS011;68323;49.394;8.434;2023-09-18T11:01:34;7.30;;;1.60;;
19816;SDS011;68323;49.394;8.434;2023-09-18T11:04:04;4.05;;;1.40;;
19816;SDS011;68323;49.394;8.434;2023-09-18T11:09:22;3.88;;;1.40;;
19816;SDS011;68323;49.394;8.434;2023-09-18T11:14:46;3.65;;;1.60;;
19816;SDS011;68323;49.394;8.434;2023-09-18T11:20:17;4.38;;;1.52;;
19816;SDS011;68323;49.394;8.434;2023-09-18T11:23:09;5.10;;;1.52;;
19816;SDS011;68323;49.394;8.434;2023-09-18T11:25:38;5.00;;;1.50;;
19816;SDS011;68323;49.394;8.434;2023-09-18T11:28:13;7.07;;;1.60;;
19816;SDS011;68323;49.394;8.434;2023-09-18T11:30:38;6.20;;;1.52;;
19816;SDS011;68323;49.394;8.434;2023-09-18T11:33:40;4.78;;;1.52;;
19816;SDS011;68323;49.394;8.434;2023-09-18T11:36:13;4.90;;;1.42;;
19816;SDS011;68323;49.394;8.434;2023-09-18T11:38:54;3.25;;;1.30;;
19816;SDS011;68323;49.394;8.434;2023-09-18T11:41:29;5.93;;;1.35;;
19816;SDS011;68323;49.394;8.434;2023-09-18T11:46:45;4.80;;;1.70;;
19816;SDS011;68323;49.394;8.434;2023-09-18T11:49:21;4.05;;;1.40;;
19816;SDS011;68323;49.394;8.434;2023-09-18T11:51:48;5.22;;;1.50;;
19816;SDS011;68323;49.394;8.434;2023-09-18T11:54:15;5.72;;;1.40;;
19816;SDS011;68323;49.394;8.434;2023-09-18T11:56:42;4.93;;;1.35;;
19816;SDS011;68323;49.394;8.434;2023-09-18T11:59:14;6.78;;;1.60;;
19816;SDS011;68323;49.394;8.434;2023-09-18T12:01:39;7.03;;;1.45;;
19816;SDS011;68323;49.394;8.434;2023-09-18T12:04:05;5.18;;;1.45;;
19816;SDS011;68323;49.394;8.434;2023-09-18T12:06:40;6.70;;;1.60;;
19816;SDS011;68323;49.394;8.434;2023-09-18T12:09:07;4.70;;;1.50;;
19816;SDS011;68323;49.394;8.434;2023-09-18T12:11:37;3.28;;;1.23;;
19816;SDS011;68323;49.394;8.434;2023-09-18T12:14:07;6.38;;;1.67;;
19816;SDS011;68323;49.394;8.434;2023-09-18T12:16:39;4.90;;;1.50;;
19816;SDS011;68323;49.394;8.434;2023-09-18T12:19:04;7.40;;;1.63;;
19816;SDS011;68323;49.394;8.434;2023-09-18T12:21:39;5.15;;;1.33;;
19816;SDS011;68323;49.394;8.434;2023-09-18T12:24:06;3.72;;;1.33;;
19816;SDS011;68323;49.394;8.434;2023-09-18T12:26:31;4.80;;;1.40;;
19816;SDS011;68323;49.394;8.434;2023-09-18T12:28:58;5.82;;;1.38;;
19816;SDS011;68323;49.394;8.434;2023-09-18T12:31:25;4.43;;;1.42;;
19816;SDS011;68323;49.394;8.434;2023-09-18T12:33:50;4.50;;;1.40;;
19816;SDS011;68323;49.394;8.434;2023-09-18T12:36:19;4.90;;;1.40;;
19816;SDS011;68323;49.394;8.434;2023-09-18T12:38:54;3.03;;;1.20;;
19816;SDS011;68323;49.394;8.434;2023-09-18T12:41:21;3.88;;;1.33;;
19816;SDS011;68323;49.394;8.434;2023-09-18T12:43:49;5.82;;;1.50;;
19816;SDS011;68323;49.394;8.434;2023-09-18T12:46:15;5.63;;;1.48;;
19816;SDS011;68323;49.394;8.434;2023-09-18T12:48:43;4.07;;;1.40;;
19816;SDS011;68323;49.394;8.434;2023-09-18T12:51:11;3.55;;;1.33;;
19816;SDS011;68323;49.394;8.434;2023-09-18T12:53:38;5.68;;;1.58;;
19816;SDS011;68323;49.394;8.434;2023-09-18T12:56:08;3.25;;;1.30;;
19816;SDS011;68323;49.394;8.434;2023-09-18T12:58:37;4.03;;;1.17;;
19816;SDS011;68323;49.394;8.434;2023-09-18T13:01:04;3.55;;;1.30;;
19816;SDS011;68323;49.394;8.434;2023-09-18T13:03:46;5.15;;;1.20;;
19816;SDS011;68323;49.394;8.434;2023-09-18T13:06:14;2.67;;;1.30;;
19816;SDS011;68323;49.394;8.434;2023-09-18T13:08:45;4.78;;;1.15;;
19816;SDS011;68323;49.394;8.434;2023-09-18T13:11:11;5.10;;;1.45;;
19816;SDS011;68323;49.394;8.434;2023-09-18T13:13:45;1.88;;;1.10;;
19816;SDS011;68323;49.394;8.434;2023-09-18T13:16:11;5.32;;;1.42;;
19816;SDS011;68323;49.394;8.434;2023-09-18T13:18:37;2.30;;;1.25;;
19816;SDS011;68323;49.394;8.434;2023-09-18T13:21:10;3.42;;;1.40;;
19816;SDS011;68323;49.394;8.434;2023-09-18T13:23:37;3.70;;;1.25;;
19816;SDS011;68323;49.394;8.434;2023-09-18T13:26:03;3.75;;;1.00;;
19816;SDS011;68323;49.394;8.434;2023-09-18T13:28:31;2.60;;;1.20;;
19816;SDS011;68323;49.394;8.434;2023-09-18T13:30:58;2.88;;;1.10;;
19816;SDS011;68323;49.394;8.434;2023-09-18T13:33:25;4.30;;;1.25;;
19816;SDS011;68323;49.394;8.434;2023-09-18T13:35:53;4.20;;;1.50;;
19816;SDS011;68323;49.394;8.434;2023-09-18T13:38:20;3.22;;;1.25;;
19816;SDS011;68323;49.394;8.434;2023-09-18T13:40:47;3.83;;;1.30;;
19816;SDS011;68323;49.394;8.434;2023-09-18T13:43:13;2.47;;;1.23;;
19816;SDS011;68323;49.394;8.434;2023-09-18T13:45:43;5.70;;;1.20;;
19816;SDS011;68323;49.394;8.434;2023-09-18T13:48:09;3.03;;;1.02;;
19816;SDS011;68323;49.394;8.434;2023-09-18T13:50:36;3.05;;;1.17;;
19816;SDS011;68323;49.394;8.434;2023-09-18T13:53:03;2.47;;;1.13;;
19816;SDS011;68323;49.394;8.434;2023-09-18T13:55:29;4.57;;;1.30;;
19816;SDS011;68323;49.394;8.434;2023-09-18T13:57:55;4.13;;;1.27;;
19816;SDS011;68323;49.394;8.434;2023-09-18T14:00:21;3.67;;;1.30;;
19816;SDS011;68323;49.394;8.434;2023-09-18T14:02:48;1.92;;;1.20;;
19816;SDS011;68323;49.394;8.434;2023-09-18T14:05:13;4.22;;;1.13;;
19816;SDS011;68323;49.394;8.434;2023-09-18T14:07:40;3.13;;;1.10;;
19816;SDS011;68323;49.394;8.434;2023-09-18T14:10:09;4.15;;;1.40;;
19816;SDS011;68323;49.394;8.434;2023-09-18T14:12:39;4.00;;;1.10;;
19816;SDS011;68323;49.394;8.434;2023-09-18T14:15:07;3.25;;;1.50;;
19816;SDS011;68323;49.394;8.434;2023-09-18T14:17:34;3.88;;;1.30;;
19816;SDS011;68323;49.394;8.434;2023-09-18T14:20:00;4.28;;;1.42;;
19816;SDS011;68323;49.394;8.434;2023-09-18T14:22:26;4.63;;;1.40;;
19816;SDS011;68323;49.394;8.434;2023-09-18T14:24:52;5.85;;;1.45;;
19816;SDS011;68323;49.394;8.434;2023-09-18T14:27:18;5.20;;;1.23;;
19816;SDS011;68323;49.394;8.434;2023-09-18T14:29:43;6.20;;;1.48;;
19816;SDS011;68323;49.394;8.434;2023-09-18T14:32:09;5.85;;;1.48;;
19816;SDS011;68323;49.394;8.434;2023-09-18T14:34:36;4.07;;;1.02;;
19816;SDS011;68323;49.394;8.434;2023-09-18T14:37:02;3.70;;;1.42;;
19816;SDS011;68323;49.394;8.434;2023-09-18T14:39:31;2.35;;;1.30;;
19816;SDS011;68323;49.394;8.434;2023-09-18T14:41:57;3.15;;;1.25;;
19816;SDS011;68323;49.394;8.434;2023-09-18T14:44:24;3.58;;;1.20;;
19816;SDS011;68323;49.394;8.434;2023-09-18T14:46:50;3.70;;;1.13;;
19816;SDS011;68323;49.394;8.434;2023-09-18T14:49:15;2.15;;;1.25;;
19816;SDS011;68323;49.394;8.434;2023-09-18T14:51:43;4.20;;;1.15;;
19816;SDS011;68323;49.394;8.434;2023-09-18T14:54:09;4.10;;;1.30;;
19816;SDS011;68323;49.394;8.434;2023-09-18T14:56:35;5.20;;;1.50;;
19816;SDS011;68323;49.394;8.434;2023-09-18T14:59:02;5.25;;;1.40;;
19816;SDS011;68323;49.394;8.434;2023-09-18T15:01:28;5.18;;;1.40;;
19816;SDS011;68323;49.394;8.434;2023-09-18T15:03:54;3.45;;;1.38;;
19816;SDS011;68323;49.394;8.434;2023-09-18T15:06:19;6.03;;;1.30;;
19816;SDS011;68323;49.394;8.434;2023-09-18T15:08:48;3.22;;;1.40;;